Time;durP1;ratioP1;P1;durP2;ratioP2;P2;SDS_P1;SDS_P2;PMS_P1;PMS_P2;Temp;Humidity;BMP_temperature;BMP_pressure;BME280_temperature;BME280_humidity;BME280_pressure;Samples;Min_cycle;Max_cycle;Signal;HPM_P1;HPM_P2
2024/01/17 00:00:54;;;;;;;14.68;6.88;;;;;;;-2.37;nan;100279.25;4988447;28;20105;-68
2024/01/17 00:03:20;;;;;;;18.60;8.45;;;;;;;-2.40;nan;100276.94;4985800;28;20037;-69
2024/01/17 00:05:45;;;;;;;26.77;9.90;;;;;;;-2.65;nan;100252.63;4984624;28;20596;-69
2024/01/17 00:08:11;;;;;;;22.05;8.80;;;;;;;-2.58;nan;100274.31;4987237;28;20125;-69
2024/01/17 00:10:36;;;;;;;13.00;6.40;;;;;;;-2.55;nan;100268.06;4985115;28;20057;-67
2024/01/17 00:13:02;;;;;;;14.43;6.80;;;;;;;-2.50;nan;100259.91;4987279;28;20469;-69
2024/01/17 00:15:28;;;;;;;16.55;7.72;;;;;;;-2.49;nan;100272.66;4987431;28;20188;-70
2024/01/17 00:17:53;;;;;;;12.55;6.85;;;;;;;-2.65;nan;100249.25;4986782;28;20505;-68
2024/01/17 00:20:19;;;;;;;14.85;7.32;;;;;;;-2.58;nan;100256.25;4986529;28;20022;-70
2024/01/17 00:22:45;;;;;;;23.25;9.73;;;;;;;-2.72;nan;100237.88;4987455;28;20397;-69
2024/01/17 00:25:11;;;;;;;31.33;12.23;;;;;;;-2.71;nan;100260.94;4986093;28;20022;-69
2024/01/17 00:27:37;;;;;;;17.02;7.80;;;;;;;-2.73;nan;100265.44;4987177;28;20050;-69
2024/01/17 00:30:03;;;;;;;36.35;13.73;;;;;;;-2.76;nan;100270.03;4987240;28;20058;-69
2024/01/17 00:32:31;;;;;;;26.88;11.45;;;;;;;-2.80;nan;100261.81;4986570;28;20022;-70
2024/01/17 00:34:57;;;;;;;16.50;7.70;;;;;;;-2.79;nan;100264.22;4985361;28;20022;-70
2024/01/17 00:37:22;;;;;;;14.95;6.15;;;;;;;-2.71;nan;100267.84;4984871;28;20511;-69
2024/01/17 00:39:48;;;;;;;12.27;5.97;;;;;;;-2.81;nan;100244.69;4985302;28;20421;-69
2024/01/17 00:42:14;;;;;;;15.75;7.68;;;;;;;-2.67;nan;100271.78;4965277;28;20120;-69
2024/01/17 00:44:42;;;;;;;12.50;6.10;;;;;;;-2.68;nan;100270.97;4987551;28;20133;-69
2024/01/17 00:47:08;;;;;;;16.55;6.88;;;;;;;-2.78;nan;100247.81;4987040;28;20022;-69
2024/01/17 00:49:35;;;;;;;12.73;6.40;;;;;;;-2.62;nan;100267.00;4986663;28;20022;-69
2024/01/17 00:52:00;;;;;;;16.10;7.07;;;;;;;-2.67;nan;100254.53;4983928;28;20022;-69
2024/01/17 00:54:26;;;;;;;14.52;6.70;;;;;;;-2.74;nan;100248.34;4985741;28;20454;-69
2024/01/17 00:56:51;;;;;;;10.77;5.55;;;;;;;-2.90;nan;100207.69;4983592;28;20040;-70
2024/01/17 00:59:16;;;;;;;15.25;7.15;;;;;;;-2.68;nan;100252.09;4986235;28;20014;-69
2024/01/17 01:01:42;;;;;;;12.80;6.22;;;;;;;-2.75;nan;100251.03;4985209;28;20034;-69
2024/01/17 01:04:10;;;;;;;12.50;5.80;;;;;;;-2.75;nan;100246.72;4985942;28;20815;-69
2024/01/17 01:06:36;;;;;;;8.40;4.15;;;;;;;-2.83;nan;100234.53;4984784;28;20026;-70
2024/01/17 01:09:01;;;;;;;13.05;5.95;;;;;;;-2.79;nan;100238.44;4984798;28;20049;-69
2024/01/17 01:11:30;;;;;;;12.18;5.97;;;;;;;-2.79;nan;100230.72;4985540;28;20350;-69
2024/01/17 01:13:56;;;;;;;9.18;4.38;;;;;;;-2.87;nan;100228.06;4984468;28;20102;-69
2024/01/17 01:16:21;;;;;;;11.65;6.30;;;;;;;-2.76;nan;100234.78;4986093;28;20136;-69
2024/01/17 01:18:47;;;;;;;15.23;6.47;;;;;;;-2.75;nan;100238.16;4986909;28;20037;-69
2024/01/17 01:21:12;;;;;;;14.40;6.55;;;;;;;-3.07;nan;100188.66;4981805;28;20641;-69
2024/01/17 01:23:38;;;;;;;12.65;6.15;;;;;;;-2.94;nan;100206.38;4967820;28;20030;-69
2024/01/17 01:26:03;;;;;;;12.40;5.95;;;;;;;-2.78;nan;100237.50;4984813;28;20026;-69
2024/01/17 01:28:29;;;;;;;12.30;5.88;;;;;;;-2.76;nan;100229.63;4984588;28;20045;-68
2024/01/17 01:30:54;;;;;;;13.90;6.18;;;;;;;-2.86;nan;100214.19;4984512;28;20121;-69
2024/01/17 01:33:20;;;;;;;16.70;6.53;;;;;;;-2.82;nan;100215.56;4986951;28;20026;-69
2024/01/17 01:35:45;;;;;;;12.60;6.38;;;;;;;-2.95;nan;100202.16;4984613;28;20476;-69
2024/01/17 01:38:10;;;;;;;14.70;6.03;;;;;;;-2.91;nan;100216.41;4985528;28;20019;-68
2024/01/17 01:40:38;;;;;;;14.50;6.10;;;;;;;-2.85;nan;100218.41;4987398;28;20084;-69
2024/01/17 01:43:20;;;;;;;13.85;6.05;;;;;;;-2.94;nan;100203.81;4989644;28;20096;-68
2024/01/17 01:46:03;;;;;;;14.15;5.82;;;;;;;-2.82;nan;100219.91;4987763;28;20036;-69
2024/01/17 01:48:31;;;;;;;12.85;5.72;;;;;;;-3.00;nan;100192.28;4988175;28;20401;-69
2024/01/17 01:50:57;;;;;;;10.30;4.97;;;;;;;-3.25;nan;100165.41;4987888;28;20018;-69
2024/01/17 01:53:23;;;;;;;12.70;5.93;;;;;;;-3.05;nan;100193.69;4969703;28;20034;-69
2024/01/17 01:55:49;;;;;;;11.00;4.53;;;;;;;-3.18;nan;100168.25;4964297;28;20116;-70
2024/01/17 01:58:15;;;;;;;12.45;5.30;;;;;;;-3.13;nan;100180.72;4989176;28;20576;-69
2024/01/17 02:00:40;;;;;;;9.95;5.32;;;;;;;-3.11;nan;100189.91;4989339;28;20108;-70
2024/01/17 02:03:06;;;;;;;10.40;5.00;;;;;;;-3.12;nan;100190.03;4986559;28;20034;-69
2024/01/17 02:05:31;;;;;;;11.20;4.97;;;;;;;-3.19;nan;100171.75;4985652;28;20378;-69
2024/01/17 02:07:57;;;;;;;11.95;4.97;;;;;;;-3.25;nan;100173.16;4988716;28;20034;-67
2024/01/17 02:10:23;;;;;;;10.05;4.80;;;;;;;-3.21;nan;100184.78;4986548;28;20023;-68
2024/01/17 02:12:49;;;;;;;10.10;4.60;;;;;;;-3.18;nan;100188.00;4988743;28;20358;-69
2024/01/17 02:15:15;;;;;;;12.32;5.45;;;;;;;-3.26;nan;100186.94;4988633;28;20026;-68
2024/01/17 02:17:42;;;;;;;10.80;5.10;;;;;;;-3.29;nan;100169.22;4987016;28;20029;-69
2024/01/17 02:20:08;;;;;;;9.20;4.80;;;;;;;-3.30;nan;100177.91;4989416;28;20431;-68
2024/01/17 02:22:33;;;;;;;8.98;4.80;;;;;;;-3.21;nan;100182.22;4967486;28;20026;-70
2024/01/17 02:25:03;;;;;;;10.05;4.63;;;;;;;-3.20;nan;100177.88;4971087;28;20026;-69
2024/01/17 02:27:28;;;;;;;8.65;4.43;;;;;;;-3.23;nan;100170.44;4984857;28;20082;-69
2024/01/17 02:29:54;;;;;;;7.70;4.30;;;;;;;-3.22;nan;100165.13;4988605;28;20121;-70
2024/01/17 02:32:20;;;;;;;8.82;4.40;;;;;;;-3.11;nan;100182.19;4983000;28;20548;-70
2024/01/17 02:34:45;;;;;;;7.97;4.03;;;;;;;-3.18;nan;100167.41;4987601;28;20494;-70
2024/01/17 02:37:14;;;;;;;8.15;4.32;;;;;;;-3.06;nan;100180.00;4987876;28;20026;-70
2024/01/17 02:39:40;;;;;;;7.07;3.42;;;;;;;-3.14;nan;100164.41;4987728;28;20037;-70
2024/01/17 02:42:05;;;;;;;6.90;4.07;;;;;;;-3.15;nan;100173.09;4984466;28;20777;-69
2024/01/17 02:44:31;;;;;;;8.63;4.35;;;;;;;-3.15;nan;100162.00;4986340;28;20030;-69
2024/01/17 02:46:56;;;;;;;9.93;4.57;;;;;;;-3.16;nan;100160.38;4970153;28;20037;-70
2024/01/17 02:49:22;;;;;;;13.95;5.50;;;;;;;-3.14;nan;100153.31;4987647;28;20396;-69
2024/01/17 02:51:47;;;;;;;15.57;6.30;;;;;;;-3.21;nan;100135.88;4986126;28;20540;-69
2024/01/17 02:54:13;;;;;;;12.93;6.25;;;;;;;-3.16;nan;100147.47;4989667;28;20451;-70
2024/01/17 02:56:39;;;;;;;18.75;7.68;;;;;;;-3.17;nan;100154.41;4986405;28;20034;-70
2024/01/17 02:59:04;;;;;;;17.65;8.25;;;;;;;-3.48;nan;100104.94;4987323;28;20053;-70
2024/01/17 03:01:30;;;;;;;19.92;8.55;;;;;;;-3.21;nan;100147.91;4986525;28;20064;-69
2024/01/17 03:03:55;;;;;;;17.08;8.32;;;;;;;-3.17;nan;100166.47;4988249;28;20468;-70
2024/01/17 03:06:20;;;;;;;18.70;8.60;;;;;;;-3.18;nan;100170.81;4969424;28;20085;-69
2024/01/17 03:08:46;;;;;;;19.83;9.18;;;;;;;-3.24;nan;100159.31;4985726;28;20014;-70
2024/01/17 03:11:11;;;;;;;15.68;7.20;;;;;;;-3.28;nan;100158.00;4986849;28;20045;-70
2024/01/17 03:13:37;;;;;;;18.45;8.38;;;;;;;-3.21;nan;100150.47;4987270;28;20042;-69
2024/01/17 03:16:02;;;;;;;17.42;7.32;;;;;;;-3.29;nan;100143.47;4986242;28;20070;-69
2024/01/17 03:18:28;;;;;;;16.60;7.43;;;;;;;-3.16;nan;100166.34;4988458;28;20030;-70
2024/01/17 03:20:54;;;;;;;19.10;7.93;;;;;;;-3.25;nan;100142.25;4987264;28;20079;-69
2024/01/17 03:23:19;;;;;;;17.25;7.97;;;;;;;-3.18;nan;100147.66;4987783;28;20026;-70
2024/01/17 03:25:45;;;;;;;17.88;8.05;;;;;;;-3.22;nan;100154.84;4987303;28;20046;-70
2024/01/17 03:28:10;;;;;;;15.05;7.88;;;;;;;-3.21;nan;100174.50;4986162;28;20031;-70
2024/01/17 03:30:36;;;;;;;15.27;7.95;;;;;;;-3.25;nan;100162.03;4987497;28;20030;-70
2024/01/17 03:33:03;;;;;;;16.63;7.50;;;;;;;-3.23;nan;100163.53;4985045;28;20026;-70
2024/01/17 03:35:29;;;;;;;17.85;7.50;;;;;;;-3.36;nan;100147.56;4986324;28;20509;-70
2024/01/17 03:37:55;;;;;;;18.13;7.65;;;;;;;-3.23;nan;100166.09;4988344;28;20034;-70
2024/01/17 03:40:20;;;;;;;17.27;7.82;;;;;;;-3.22;nan;100159.19;4985977;28;20084;-70
2024/01/17 03:42:46;;;;;;;17.48;7.40;;;;;;;-3.23;nan;100160.94;4985199;28;20025;-70
2024/01/17 03:45:12;;;;;;;16.00;7.97;;;;;;;-3.25;nan;100155.13;4986193;28;20100;-70
2024/01/17 03:47:38;;;;;;;16.80;7.68;;;;;;;-3.29;nan;100142.66;4986075;28;20099;-70
2024/01/17 03:50:04;;;;;;;16.40;7.60;;;;;;;-3.26;nan;100152.69;4986814;28;20465;-69
2024/01/17 03:52:29;;;;;;;17.42;7.57;;;;;;;-3.29;nan;100156.34;4989200;28;20022;-70
2024/01/17 03:54:55;;;;;;;14.65;7.15;;;;;;;-3.26;nan;100147.53;4969138;28;20030;-69
2024/01/17 03:57:20;;;;;;;14.98;7.30;;;;;;;-3.35;nan;100136.34;4987385;28;20388;-70
2024/01/17 03:59:45;;;;;;;14.48;6.93;;;;;;;-3.33;nan;100143.91;4985058;28;20382;-68
2024/01/17 04:02:11;;;;;;;15.38;6.82;;;;;;;-3.47;nan;100117.66;4986028;28;20101;-69
2024/01/17 04:04:40;;;;;;;17.25;7.72;;;;;;;-3.32;nan;100137.81;4986074;28;20040;-69
2024/01/17 04:07:05;;;;;;;15.40;6.93;;;;;;;-3.41;nan;100113.72;4987423;28;20030;-70
2024/01/17 04:09:31;;;;;;;16.70;6.88;;;;;;;-3.38;nan;100117.75;4986131;28;20481;-70
2024/01/17 04:11:56;;;;;;;18.15;7.60;;;;;;;-3.27;nan;100120.97;4986584;28;20022;-69
2024/01/17 04:14:22;;;;;;;15.57;7.05;;;;;;;-3.33;nan;100116.38;4967691;28;20027;-69
2024/01/17 04:16:47;;;;;;;17.70;8.05;;;;;;;-3.23;nan;100124.91;4983244;28;20076;-69
2024/01/17 04:19:13;;;;;;;17.92;8.02;;;;;;;-3.22;nan;100116.19;4986337;28;20452;-69
2024/01/17 04:21:38;;;;;;;18.17;7.95;;;;;;;-3.27;nan;100105.53;4986181;28;20053;-70
2024/01/17 04:24:04;;;;;;;16.67;7.47;;;;;;;-3.19;nan;100109.16;4983968;28;20033;-69
2024/01/17 04:26:30;;;;;;;20.08;9.00;;;;;;;-3.21;nan;100098.97;4986003;28;20065;-67
2024/01/17 04:28:55;;;;;;;20.60;8.63;;;;;;;-3.24;nan;100086.41;4984909;28;20492;-69
2024/01/17 04:31:21;;;;;;;18.02;7.95;;;;;;;-3.26;nan;100089.09;4983771;28;20485;-69
2024/01/17 04:33:47;;;;;;;17.23;8.93;;;;;;;-3.24;nan;100105.22;4986151;28;20030;-69
2024/01/17 04:36:14;;;;;;;18.23;8.52;;;;;;;-3.13;nan;100111.97;4985815;28;20593;-69
2024/01/17 04:38:40;;;;;;;21.30;8.57;;;;;;;-3.31;nan;100090.50;4985406;28;20069;-68
2024/01/17 04:41:05;;;;;;;19.65;8.50;;;;;;;-3.24;nan;100099.28;4986008;28;20026;-69
2024/01/17 04:43:31;;;;;;;17.58;8.13;;;;;;;-3.24;nan;100107.00;4985476;28;20034;-69
2024/01/17 04:45:56;;;;;;;16.98;8.05;;;;;;;-3.09;nan;100115.06;4968333;28;20022;-69
2024/01/17 04:48:21;;;;;;;19.27;8.90;;;;;;;-3.18;nan;100116.75;4986671;28;20488;-68
2024/01/17 04:50:49;;;;;;;18.42;8.20;;;;;;;-3.06;nan;100118.19;4986597;28;20065;-69
2024/01/17 04:53:15;;;;;;;17.05;8.63;;;;;;;-2.96;nan;100128.44;4986773;28;20030;-69
2024/01/17 04:55:41;;;;;;;19.08;8.48;;;;;;;-3.01;nan;100110.03;4985089;28;20041;-69
2024/01/17 04:58:06;;;;;;;20.00;8.35;;;;;;;-2.95;nan;100122.31;4986693;28;20142;-69
2024/01/17 05:00:31;;;;;;;16.75;8.02;;;;;;;-2.91;nan;100128.00;4985853;28;20088;-70
2024/01/17 05:02:57;;;;;;;20.33;8.52;;;;;;;-2.88;nan;100143.16;4968979;28;20049;-69
2024/01/17 05:05:24;;;;;;;21.20;8.13;;;;;;;-2.86;nan;100146.41;4985424;28;20026;-68
2024/01/17 05:07:49;;;;;;;16.67;8.13;;;;;;;-2.86;nan;100136.09;4964194;28;20046;-67
2024/01/17 05:10:14;;;;;;;17.23;8.15;;;;;;;-2.86;nan;100134.31;4987038;28;20118;-68
2024/01/17 05:12:40;;;;;;;15.65;7.85;;;;;;;-2.90;nan;100124.44;4978313;28;20037;-69
2024/01/17 05:15:06;;;;;;;18.85;8.00;;;;;;;-2.84;nan;100126.47;4970764;28;20026;-69
2024/01/17 05:17:31;;;;;;;17.55;7.88;;;;;;;-2.84;nan;100126.47;4975453;28;20034;-69
2024/01/17 05:19:56;;;;;;;18.20;8.02;;;;;;;;;;4993842;28;20073;-69
2024/01/17 05:22:22;;;;;;;14.93;7.53;;;;;;;;;;4989160;28;20353;-69
2024/01/17 05:24:47;;;;;;;17.35;6.97;;;;;;;;;;4991525;28;20275;-69
2024/01/17 05:27:12;;;;;;;17.83;7.95;;;;;;;;;;4972826;28;20060;-69
2024/01/17 05:29:44;;;;;;;16.85;7.43;;;;;;;;;;4987975;28;20045;-70
2024/01/17 05:32:10;;;;;;;15.38;7.35;;;;;;;;;;4988133;28;20137;-70
2024/01/17 05:34:35;;;;;;;17.20;7.38;;;;;;;;;;4993564;28;20457;-70
2024/01/17 05:37:03;;;;;;;15.52;7.10;;;;;;;;;;4991057;28;20056;-70
2024/01/17 05:39:28;;;;;;;17.75;7.53;;;;;;;;;;4992466;28;20120;-69
2024/01/17 05:41:53;;;;;;;14.40;6.90;;;;;;;;;;4992281;28;20141;-69
2024/01/17 05:44:19;;;;;;;15.40;6.50;;;;;;;;;;4990890;28;20093;-69
2024/01/17 05:46:44;;;;;;;14.65;6.68;;;;;;;;;;4992189;28;20034;-69
2024/01/17 05:49:09;;;;;;;19.45;6.90;;;;;;;;;;4990409;28;20053;-68
2024/01/17 05:51:34;;;;;;;12.70;5.60;;;;;;;-2.49;nan;100127.44;4973213;28;20054;-69
2024/01/17 05:54:00;;;;;;;13.30;5.80;;;;;;;-2.43;nan;100132.03;4992283;28;20326;-69
2024/01/17 05:56:25;;;;;;;13.73;6.30;;;;;;;-2.49;nan;100111.97;4973705;28;20437;-70
2024/01/17 05:58:51;;;;;;;15.95;6.90;;;;;;;-2.42;nan;100107.84;4992635;28;20110;-69
2024/01/17 06:01:16;;;;;;;15.23;5.95;;;;;;;-2.46;nan;100091.09;4988311;28;20022;-69
2024/01/17 06:03:42;;;;;;;12.13;5.95;;;;;;;-2.34;nan;100101.97;4991412;28;20030;-70
2024/01/17 06:06:07;;;;;;;13.05;6.88;;;;;;;-2.38;nan;100093.72;4992476;28;20018;-69
2024/01/17 06:08:33;;;;;;;12.18;6.03;;;;;;;-2.28;nan;100101.38;4991028;28;20026;-69
2024/01/17 06:10:58;;;;;;;13.43;6.60;;;;;;;-2.25;nan;100103.66;4990733;28;20033;-69
2024/01/17 06:13:24;;;;;;;16.80;7.15;;;;;;;-2.22;nan;100093.84;4966277;28;20026;-69
2024/01/17 06:15:49;;;;;;;19.63;6.35;;;;;;;;;;4989740;28;20029;-68
2024/01/17 06:18:14;;;;;;;20.35;7.63;;;;;;;;;;4974542;28;20053;-69
2024/01/17 06:20:39;;;;;;;24.77;7.93;;;;;;;;;;4990865;28;20048;-67
2024/01/17 06:23:05;;;;;;;20.42;8.38;;;;;;;;;;4993518;28;20283;-68
2024/01/17 06:25:30;;;;;;;25.37;8.27;;;;;;;;;;4987038;28;20062;-69
2024/01/17 06:27:56;;;;;;;29.92;9.32;;;;;;;;;;4989808;28;20284;-69
2024/01/17 06:30:22;;;;;;;27.83;8.68;;;;;;;;;;4970565;28;20077;-67
2024/01/17 06:32:47;;;;;;;19.98;7.43;;;;;;;;;;4983402;28;20023;-69
2024/01/17 06:35:13;;;;;;;15.07;6.95;;;;;;;;;;4970185;28;20030;-68
2024/01/17 06:37:38;;;;;;;15.38;6.72;;;;;;;;;;4967391;28;20468;-69
2024/01/17 06:40:04;;;;;;;18.27;8.13;;;;;;;;;;4989041;28;20538;-69
2024/01/17 06:42:29;;;;;;;18.85;7.93;;;;;;;-1.95;nan;100054.22;4970186;28;20362;-69
2024/01/17 06:44:55;;;;;;;12.77;6.82;;;;;;;-1.80;nan;100069.13;4988754;28;20057;-69
2024/01/17 06:47:20;;;;;;;13.52;6.03;;;;;;;-1.90;nan;100063.28;4985762;28;20133;-68
2024/01/17 06:49:46;;;;;;;12.13;6.15;;;;;;;-1.97;nan;100057.91;4986404;28;20033;-69
2024/01/17 06:52:11;;;;;;;14.20;6.53;;;;;;;-1.92;nan;100063.41;4986459;28;20026;-69
2024/01/17 06:54:37;;;;;;;15.05;6.85;;;;;;;-1.88;nan;100064.72;4972116;28;20023;-69
2024/01/17 06:57:02;;;;;;;16.20;7.13;;;;;;;-1.86;nan;100073.13;4987925;28;20064;-68
2024/01/17 06:59:28;;;;;;;15.68;7.00;;;;;;;-1.85;nan;100076.53;4986314;28;20034;-68
2024/01/17 07:01:54;;;;;;;12.10;6.70;;;;;;;-1.84;nan;100076.38;4984965;28;20030;-68
2024/01/17 07:04:20;;;;;;;14.07;6.55;;;;;;;-1.87;nan;100055.22;4983969;28;20022;-69
2024/01/17 07:06:45;;;;;;;14.40;6.32;;;;;;;-1.77;nan;100058.53;4967888;28;20041;-69
2024/01/17 07:09:11;;;;;;;16.42;7.63;;;;;;;-1.74;nan;100056.44;4985600;28;20397;-69
2024/01/17 07:11:37;;;;;;;16.73;7.35;;;;;;;-1.79;nan;100045.75;4985841;28;20033;-69
2024/01/17 07:14:03;;;;;;;17.48;7.93;;;;;;;-1.73;nan;100029.63;4985130;28;20026;-68
2024/01/17 07:16:29;;;;;;;15.52;7.78;;;;;;;-1.63;nan;100041.63;4986732;28;20036;-68
2024/01/17 07:18:55;;;;;;;20.50;7.82;;;;;;;-1.66;nan;100031.63;4988897;28;20949;-68
2024/01/17 07:21:21;;;;;;;16.70;8.15;;;;;;;-1.60;nan;100031.81;4984595;28;20036;-68
2024/01/17 07:23:46;;;;;;;15.57;7.75;;;;;;;-1.56;nan;100027.94;4985227;28;20022;-67
2024/01/17 07:26:12;;;;;;;17.40;7.43;;;;;;;-1.50;nan;100037.66;4978996;28;20019;-68
2024/01/17 07:28:37;;;;;;;15.88;7.28;;;;;;;-1.48;nan;100037.50;4971423;28;20018;-69
2024/01/17 07:31:03;;;;;;;16.33;7.38;;;;;;;-1.50;nan;100031.69;4966371;28;20049;-68
2024/01/17 07:33:28;;;;;;;17.35;7.10;;;;;;;-1.45;nan;100037.19;4983781;28;20026;-68
2024/01/17 07:35:54;;;;;;;15.70;7.63;;;;;;;-1.34;nan;100052.41;4967935;28;20148;-68
2024/01/17 07:38:20;;;;;;;17.35;8.43;;;;;;;-1.26;nan;100063.75;4986602;28;20452;-68
2024/01/17 07:40:46;;;;;;;20.05;9.00;;;;;;;-1.21;nan;100067.47;4983066;28;20573;-68
2024/01/17 07:43:11;;;;;;;20.63;8.45;;;;;;;-1.30;nan;100040.78;4986429;28;20105;-67
2024/01/17 07:45:37;;;;;;;21.05;9.05;;;;;;;-1.14;nan;100063.28;4980474;28;20104;-68
2024/01/17 07:48:02;;;;;;;18.95;8.98;;;;;;;-1.16;nan;100047.13;4985319;28;20041;-68
2024/01/17 07:50:28;;;;;;;17.67;8.55;;;;;;;-1.04;nan;100044.25;4984106;28;20034;-68
2024/01/17 07:52:53;;;;;;;21.42;9.32;;;;;;;-1.03;nan;100040.69;4968821;28;20022;-69
2024/01/17 07:55:19;;;;;;;18.27;7.57;;;;;;;-0.98;nan;100047.03;4982764;28;20026;-68
2024/01/17 07:57:44;;;;;;;14.20;6.75;;;;;;;-1.40;nan;99979.91;4987134;28;20049;-69
2024/01/17 08:00:11;;;;;;;12.43;5.95;;;;;;;-0.92;nan;100009.41;4982926;28;20046;-68
2024/01/17 08:02:38;;;;;;;11.40;6.03;;;;;;;-0.90;nan;100005.69;4985393;28;20080;-68
2024/01/17 08:05:03;;;;;;;11.75;5.57;;;;;;;-0.83;nan;100015.41;4983340;28;20026;-67
2024/01/17 08:07:29;;;;;;;15.90;6.10;;;;;;;-0.87;nan;100010.53;4984773;28;20388;-67
2024/01/17 08:09:54;;;;;;;19.95;6.50;;;;;;;-0.76;nan;100019.75;4984313;28;20030;-67
2024/01/17 08:12:20;;;;;;;19.33;6.35;;;;;;;-0.74;nan;100023.00;4960999;28;20030;-68
2024/01/17 08:14:48;;;;;;;18.83;6.47;;;;;;;-0.59;nan;100027.53;4986401;28;20685;-67
2024/01/17 08:17:14;;;;;;;13.43;6.30;;;;;;;-0.61;nan;100016.53;4972598;28;20446;-66
2024/01/17 08:19:39;;;;;;;12.88;6.35;;;;;;;-0.49;nan;100031.56;4980310;28;20058;-67
2024/01/17 08:22:05;;;;;;;16.02;6.75;;;;;;;-0.43;nan;100018.00;4986177;28;20732;-67
2024/01/17 08:24:31;;;;;;;15.23;6.88;;;;;;;;;;4982558;28;20401;-69
2024/01/17 08:26:57;;;;;;;11.52;6.18;;;;;;;-0.54;nan;99976.94;4986009;28;20047;-69
2024/01/17 08:29:22;;;;;;;23.40;7.47;;;;;;;-0.42;nan;99977.41;4984344;28;20063;-69
2024/01/17 08:31:48;;;;;;;18.52;7.28;;;;;;;-0.21;nan;100000.19;4985748;28;20030;-69
2024/01/17 08:34:14;;;;;;;19.48;8.75;;;;;;;-0.20;nan;99988.84;4983681;28;20097;-68
2024/01/17 08:36:40;;;;;;;19.95;9.55;;;;;;;-0.18;nan;99976.56;4986888;28;20092;-68
2024/01/17 08:39:06;;;;;;;17.67;8.15;;;;;;;-0.06;nan;99984.78;4984759;28;20567;-68
2024/01/17 08:41:33;;;;;;;17.77;8.23;;;;;;;-0.06;nan;99964.06;4987998;28;20034;-69
2024/01/17 08:43:59;;;;;;;17.38;8.48;;;;;;;0.08;nan;99976.31;4983396;28;20480;-70
2024/01/17 08:46:25;;;;;;;20.65;9.25;;;;;;;0.70;nan;100075.81;4985450;28;20535;-70
2024/01/17 08:48:50;;;;;;;21.13;8.70;;;;;;;0.18;nan;99971.75;4982702;28;20022;-70
2024/01/17 08:51:17;;;;;;;19.95;8.93;;;;;;;0.26;nan;99981.25;4965634;28;21454;-69
2024/01/17 08:53:43;;;;;;;18.88;8.63;;;;;;;0.33;nan;99969.25;4984537;28;20030;-69
2024/01/17 08:56:09;;;;;;;18.20;8.30;;;;;;;0.28;nan;99953.41;4982932;28;20057;-69
2024/01/17 08:58:34;;;;;;;23.20;8.50;;;;;;;0.40;nan;99979.75;4983839;28;20112;-70
2024/01/17 09:01:01;;;;;;;22.35;8.70;;;;;;;0.54;nan;99983.41;4985635;28;20118;-69
2024/01/17 09:03:29;;;;;;;11.95;6.95;;;;;;;0.57;nan;99981.28;4984582;28;20093;-69
2024/01/17 09:05:55;;;;;;;11.88;6.43;;;;;;;0.64;nan;99966.66;4964701;28;20060;-70
2024/01/17 09:08:20;;;;;;;10.52;5.18;;;;;;;0.64;nan;99950.31;4980856;28;20043;-69
2024/01/17 09:10:45;;;;;;;10.18;5.28;;;;;;;0.69;nan;99962.78;4980861;28;20469;-70
2024/01/17 09:13:13;;;;;;;12.65;5.70;;;;;;;0.82;nan;99968.22;4982688;28;20073;-70
2024/01/17 09:15:39;;;;;;;10.73;5.55;;;;;;;0.83;nan;99962.84;4985564;28;20030;-69
2024/01/17 09:18:05;;;;;;;11.23;5.57;;;;;;;0.83;nan;99949.88;4981859;28;20022;-69
2024/01/17 09:20:31;;;;;;;10.65;5.43;;;;;;;0.81;nan;99936.31;4981926;28;20038;-68
2024/01/17 09:22:57;;;;;;;10.40;5.40;;;;;;;0.96;nan;99945.91;4965538;28;20314;-68
2024/01/17 09:25:23;;;;;;;10.02;4.68;;;;;;;1.03;nan;99950.25;4980225;28;20081;-70
2024/01/17 09:27:49;;;;;;;11.15;5.30;;;;;;;0.91;nan;99933.47;4963141;28;20149;-69
2024/01/17 09:30:14;;;;;;;11.80;4.95;;;;;;;0.85;nan;99910.84;4983222;28;20062;-71
2024/01/17 09:32:41;;;;;;;11.57;5.45;;;;;;;1.13;nan;99939.63;4983526;28;20397;-72
2024/01/17 09:35:08;;;;;;;10.57;6.25;;;;;;;1.19;nan;99938.91;4984602;28;20026;-72
2024/01/17 09:37:36;;;;;;;12.95;6.38;;;;;;;;;;4983791;28;20032;-71
2024/01/17 09:40:01;;;;;;;16.90;7.55;;;;;;;;;;4985297;28;20030;-72
2024/01/17 09:42:26;;;;;;;15.32;7.50;;;;;;;;;;4984502;28;20037;-71
2024/01/17 09:44:52;;;;;;;14.40;7.15;;;;;;;;;;4967112;28;20035;-71
2024/01/17 09:47:18;;;;;;;17.30;7.72;;;;;;;;;;4984234;28;20495;-71
2024/01/17 09:49:44;;;;;;;12.52;6.43;;;;;;;1.61;nan;99916.00;4985963;28;20424;-72
2024/01/17 09:52:13;;;;;;;18.08;6.82;;;;;;;1.65;nan;99925.84;4983893;28;20033;-71
2024/01/17 09:54:45;;;;;;;16.23;7.60;;;;;;;1.77;nan;99909.81;4985343;28;20547;-71
2024/01/17 09:57:19;;;;;;;17.92;6.93;;;;;;;1.83;nan;99899.53;4982813;28;20264;-71
2024/01/17 09:59:48;;;;;;;13.27;6.57;;;;;;;1.88;nan;99886.00;4986583;28;20387;-71
2024/01/17 10:02:16;;;;;;;12.27;5.82;;;;;;;1.98;nan;99896.91;4971355;28;20033;-71
2024/01/17 10:04:41;;;;;;;13.38;5.78;;;;;;;2.04;nan;99893.59;4968708;28;20508;-70
2024/01/17 10:07:07;;;;;;;17.15;6.88;;;;;;;2.00;nan;99871.56;4973127;28;20057;-70
2024/01/17 10:09:33;;;;;;;11.43;6.20;;;;;;;2.20;nan;99877.00;4983424;28;20035;-69
2024/01/17 10:11:59;;;;;;;11.80;5.88;;;;;;;2.26;nan;99885.88;4985224;28;20509;-69
2024/01/17 10:14:25;;;;;;;11.77;6.28;;;;;;;2.22;nan;99851.63;4988295;28;20465;-70
2024/01/17 10:16:50;;;;;;;15.60;7.00;;;;;;;2.39;nan;99849.59;4987278;28;20129;-70
2024/01/17 10:19:17;;;;;;;10.88;5.53;;;;;;;2.39;nan;99843.63;4986845;28;20114;-70
2024/01/17 10:21:43;;;;;;;9.20;4.75;;;;;;;2.51;nan;99855.94;4987851;28;20034;-69
2024/01/17 10:24:10;;;;;;;8.70;4.40;;;;;;;2.72;nan;99857.72;4984601;28;20022;-70
2024/01/17 10:26:35;;;;;;;7.53;3.70;;;;;;;2.80;nan;99850.78;4986073;28;20070;-69
2024/01/17 10:29:01;;;;;;;6.80;3.58;;;;;;;2.84;nan;99844.22;4984291;28;20053;-69
2024/01/17 10:31:26;;;;;;;9.52;3.80;;;;;;;2.88;nan;99840.25;4986554;28;20499;-69
2024/01/17 10:33:53;;;;;;;8.32;3.67;;;;;;;2.84;nan;99821.63;4985760;28;20080;-70
2024/01/17 10:36:18;;;;;;;9.70;3.95;;;;;;;3.03;nan;99827.97;4986821;28;20062;-70
2024/01/17 10:38:46;;;;;;;10.13;3.63;;;;;;;3.10;nan;99828.81;4987533;28;20054;-69
2024/01/17 10:41:13;;;;;;;8.43;3.58;;;;;;;3.16;nan;99825.47;4989904;28;20060;-70
2024/01/17 10:43:54;;;;;;;6.65;3.88;;;;;;;3.18;nan;99810.47;4987178;28;20027;-69
2024/01/17 10:46:20;;;;;;;6.63;3.45;;;;;;;3.32;nan;99815.75;4984109;28;20053;-69
2024/01/17 10:48:47;;;;;;;9.05;4.30;;;;;;;3.40;nan;99808.59;4985282;28;20065;-70
2024/01/17 10:51:23;;;;;;;7.53;3.72;;;;;;;3.47;nan;99802.59;4984802;28;20026;-69
2024/01/17 10:53:52;;;;;;;8.02;4.32;;;;;;;3.54;nan;99800.81;4986367;28;20096;-69
2024/01/17 10:56:19;;;;;;;8.18;3.78;;;;;;;3.49;nan;99775.38;4983525;28;20738;-69
2024/01/17 10:58:48;;;;;;;10.40;4.20;;;;;;;3.66;nan;99795.88;4983264;28;20113;-67
2024/01/17 11:01:17;;;;;;;6.30;4.00;;;;;;;3.72;nan;99775.06;4985230;28;20026;-69
2024/01/17 11:03:46;;;;;;;8.32;3.70;;;;;;;3.84;nan;99778.72;4985805;28;20113;-69
2024/01/17 11:06:12;;;;;;;6.85;3.50;;;;;;;3.90;nan;99769.31;4986362;28;20045;-69
2024/01/17 11:08:38;;;;;;;4.90;2.60;;;;;;;3.91;nan;99741.47;4969494;28;20034;-70
2024/01/17 11:11:05;;;;;;;5.40;2.83;;;;;;;4.03;nan;99750.31;4984472;28;20057;-69
2024/01/17 11:13:31;;;;;;;8.05;2.78;;;;;;;4.16;nan;99759.94;4987409;28;20118;-70
2024/01/17 11:15:59;;;;;;;6.65;2.70;;;;;;;4.28;nan;99755.75;4961598;28;21204;-69
2024/01/17 11:18:27;;;;;;;5.85;3.22;;;;;;;4.37;nan;99749.34;4986588;28;20030;-69
2024/01/17 11:20:54;;;;;;;4.90;2.78;;;;;;;4.34;nan;99741.94;4981443;28;20552;-70
2024/01/17 11:23:35;;;;;;;5.13;3.00;;;;;;;4.52;nan;99753.56;4987663;28;20038;-70
2024/01/17 11:26:26;;;;;;;4.10;2.28;;;;;;;4.61;nan;99752.34;4983686;28;20036;-70
2024/01/17 11:29:05;;;;;;;3.10;2.20;;;;;;;4.62;nan;99744.34;4982291;28;20176;-69
2024/01/17 11:31:33;;;;;;;5.07;2.55;;;;;;;4.71;nan;99741.50;4969728;28;20413;-69
2024/01/17 11:33:59;;;;;;;5.60;2.55;;;;;;;4.72;nan;99737.88;4984572;28;20034;-68
2024/01/17 11:36:47;;;;;;;4.65;2.10;;;;;;;4.80;nan;99742.91;4981647;28;20030;-69
2024/01/17 11:39:17;;;;;;;4.30;2.45;;;;;;;4.82;nan;99736.47;4983555;28;20026;-69
2024/01/17 11:41:44;;;;;;;7.30;2.42;;;;;;;4.78;nan;99724.84;4986722;28;20096;-69
2024/01/17 11:44:12;;;;;;;4.03;2.10;;;;;;;4.82;nan;99715.63;4972393;28;20026;-69
2024/01/17 11:46:40;;;;;;;4.30;2.28;;;;;;;4.89;nan;99716.41;4983834;28;20488;-68
2024/01/17 11:49:09;;;;;;;4.88;2.30;;;;;;;4.80;nan;99690.75;4968700;28;20080;-69